createdAt,value
2018-11-13T00:00:27.698Z,94.30
2018-11-13T00:02:58.815Z,93.40
2018-11-13T00:05:29.888Z,93.90
2018-11-13T00:08:00.730Z,94.20
2018-11-13T00:10:31.569Z,94.20
2018-11-13T00:13:03.062Z,94.10
2018-11-13T00:15:33.909Z,94.40
2018-11-13T00:18:04.930Z,94.40
2018-11-13T00:20:35.804Z,93.90
2018-11-13T00:23:07.078Z,93.50
2018-11-13T00:25:37.949Z,94.10
2018-11-13T00:28:08.758Z,94.10
2018-11-13T00:30:39.697Z,94.20
2018-11-13T00:33:10.541Z,94.10
2018-11-13T00:35:41.439Z,94.30
2018-11-13T00:38:12.469Z,94.40
2018-11-13T00:40:43.298Z,94.40
2018-11-13T00:43:14.142Z,94.40
2018-11-13T00:45:45.218Z,94.50
2018-11-13T00:48:15.814Z,94.50
2018-11-13T00:50:46.772Z,94.40
2018-11-13T00:53:17.513Z,94.60
2018-11-13T00:55:48.343Z,94.80
2018-11-13T00:58:19.224Z,94.80
2018-11-13T01:00:50.164Z,94.80
2018-11-13T01:03:21.128Z,94.50
2018-11-13T01:05:52.297Z,94.80
2018-11-13T01:08:22.760Z,94.80
2018-11-13T01:10:53.637Z,94.60
2018-11-13T01:13:24.507Z,94.80
2018-11-13T01:15:55.468Z,94.50
2018-11-13T01:18:26.619Z,94.60
2018-11-13T01:20:57.429Z,94.60
2018-11-13T01:23:28.397Z,94.80
2018-11-13T01:25:59.267Z,94.80
2018-11-13T01:28:30.199Z,94.90
2018-11-13T01:31:01.035Z,94.40
2018-11-13T01:33:31.872Z,94.80
2018-11-13T01:36:02.722Z,95.20
2018-11-13T01:38:33.540Z,95.00
2018-11-13T01:41:04.440Z,94.90
2018-11-13T01:43:35.222Z,94.90
2018-11-13T01:46:06.292Z,94.70
2018-11-13T01:48:37.107Z,95.10
2018-11-13T01:51:07.947Z,95.50
2018-11-13T01:53:38.884Z,95.10
2018-11-13T01:56:09.740Z,95.00
2018-11-13T01:58:40.631Z,95.20
2018-11-13T02:01:11.531Z,94.50
2018-11-13T02:03:42.408Z,95.40
2018-11-13T02:06:13.374Z,95.60
2018-11-13T02:08:44.236Z,95.40
2018-11-13T02:11:15.257Z,95.20
2018-11-13T02:13:46.125Z,95.30
2018-11-13T02:16:16.967Z,94.90
2018-11-13T02:18:47.840Z,94.70
2018-11-13T02:21:18.728Z,95.30
2018-11-13T02:23:49.571Z,95.50
2018-11-13T02:26:20.499Z,95.50
2018-11-13T02:28:51.303Z,95.40
2018-11-13T02:31:22.172Z,95.20
2018-11-13T02:33:53.061Z,95.10
2018-11-13T02:36:24.005Z,95.00
2018-11-13T02:38:54.832Z,94.80
2018-11-13T02:41:25.661Z,95.30
2018-11-13T02:43:56.525Z,95.30
2018-11-13T02:46:27.773Z,95.30
2018-11-13T02:48:58.606Z,95.30
2018-11-13T02:51:29.452Z,95.20
2018-11-13T02:54:00.320Z,95.20
2018-11-13T02:56:31.186Z,95.20
2018-11-13T02:59:02.403Z,95.20
2018-11-13T03:01:33.352Z,95.10
2018-11-13T03:04:04.346Z,94.90
2018-11-13T03:06:35.566Z,95.00
2018-11-13T03:09:08.208Z,95.00
2018-11-13T03:11:39.149Z,95.00
2018-11-13T03:14:11.217Z,95.00
2018-11-13T03:16:42.182Z,95.00
2018-11-13T03:19:13.141Z,94.90
2018-11-13T03:21:44.122Z,94.70
2018-11-13T03:24:15.008Z,94.90
2018-11-13T03:26:45.859Z,95.10
2018-11-13T03:29:16.721Z,95.20
2018-11-13T03:31:47.531Z,94.90
2018-11-13T03:34:18.385Z,95.30
2018-11-13T03:36:49.300Z,95.30
2018-11-13T03:39:20.257Z,95.20
2018-11-13T03:41:51.067Z,95.10
2018-11-13T03:44:22.191Z,94.60
2018-11-13T03:46:52.965Z,95.00
2018-11-13T03:49:24.023Z,95.40
2018-11-13T03:51:54.884Z,95.40
2018-11-13T03:54:25.678Z,95.10
2018-11-13T03:56:56.515Z,95.40
2018-11-13T03:59:27.516Z,95.40
2018-11-13T04:01:58.360Z,95.20
2018-11-13T04:04:29.188Z,95.40
2018-11-13T04:07:00.084Z,95.40
2018-11-13T04:09:30.859Z,95.20
2018-11-13T04:12:01.716Z,94.90
2018-11-13T04:14:32.484Z,95.20
2018-11-13T04:17:03.505Z,95.30
2018-11-13T04:19:34.311Z,95.00
2018-11-13T04:22:05.721Z,95.00
2018-11-13T04:24:36.617Z,94.90
2018-11-13T04:27:07.589Z,94.70
2018-11-13T04:29:38.394Z,94.50
2018-11-13T04:32:09.390Z,94.40
2018-11-13T04:34:40.212Z,94.30
2018-11-13T04:37:11.015Z,94.40
2018-11-13T04:39:41.976Z,94.40
2018-11-13T04:42:12.843Z,94.40
2018-11-13T04:44:43.837Z,94.50
2018-11-13T04:47:14.660Z,94.40
2018-11-13T04:49:45.710Z,94.30
2018-11-13T04:52:16.529Z,94.10
2018-11-13T04:54:47.528Z,94.20
2018-11-13T04:57:18.335Z,94.00
2018-11-13T04:59:49.171Z,94.10
2018-11-13T05:02:20.073Z,94.00
2018-11-13T05:04:51.079Z,94.00
2018-11-13T05:07:21.919Z,93.80
2018-11-13T05:09:54.234Z,93.80
2018-11-13T05:12:25.263Z,93.80
2018-11-13T05:14:56.085Z,94.00
2018-11-13T05:17:27.259Z,94.00
2018-11-13T05:19:58.069Z,93.80
2018-11-13T05:22:29.448Z,93.60
2018-11-13T05:25:00.272Z,93.70
2018-11-13T05:27:31.170Z,93.50
2018-11-13T05:30:02.040Z,93.60
2018-11-13T05:32:32.960Z,93.80
2018-11-13T05:35:03.798Z,93.90
2018-11-13T05:37:34.661Z,93.70
2018-11-13T05:40:08.276Z,94.10
2018-11-13T05:42:39.485Z,93.50
2018-11-13T05:45:12.570Z,93.70
2018-11-13T05:47:43.576Z,93.90
2018-11-13T05:50:15.725Z,93.90
2018-11-13T05:52:48.106Z,93.10
2018-11-13T05:55:19.051Z,93.30
2018-11-13T05:57:50.185Z,93.20
2018-11-13T06:00:23.942Z,92.90
2018-11-13T06:02:54.841Z,92.70
2018-11-13T06:05:25.738Z,92.80
2018-11-13T06:07:56.856Z,92.50
2018-11-13T06:10:27.789Z,92.60
2018-11-13T06:12:58.729Z,92.50
2018-11-13T06:15:29.656Z,92.50
2018-11-13T06:18:00.980Z,92.60
2018-11-13T06:20:31.985Z,92.60
2018-11-13T06:23:02.919Z,92.20
2018-11-13T06:25:33.942Z,92.00
2018-11-13T06:28:04.820Z,92.00
2018-11-13T06:30:36.434Z,92.10
2018-11-13T06:33:07.637Z,92.20
2018-11-13T06:35:38.586Z,92.20
2018-11-13T06:38:09.500Z,92.30
2018-11-13T06:40:40.359Z,92.40
2018-11-13T06:43:11.219Z,92.50
2018-11-13T06:45:42.202Z,92.30
2018-11-13T06:48:13.161Z,92.30
2018-11-13T06:50:43.982Z,92.50
2018-11-13T06:53:15.024Z,92.50
2018-11-13T06:55:48.328Z,92.50
2018-11-13T06:58:19.225Z,92.40
2018-11-13T07:00:50.076Z,92.60
2018-11-13T07:03:20.996Z,92.20
2018-11-13T07:05:52.117Z,92.20
2018-11-13T07:08:24.104Z,91.90
2018-11-13T07:10:55.126Z,91.90
2018-11-13T07:13:26.033Z,91.70
2018-11-13T07:15:57.130Z,91.60
2018-11-13T07:18:28.072Z,91.90
2018-11-13T07:20:58.951Z,91.80
2018-11-13T07:23:29.755Z,91.80
2018-11-13T07:26:00.668Z,91.90
2018-11-13T07:28:31.783Z,92.10
2018-11-13T07:31:02.608Z,91.80
2018-11-13T07:33:33.461Z,91.60
2018-11-13T07:36:04.528Z,91.50
2018-11-13T07:38:35.386Z,91.70
2018-11-13T07:41:06.397Z,91.70
2018-11-13T07:43:37.284Z,91.60
2018-11-13T07:46:08.247Z,91.70
2018-11-13T07:48:39.603Z,91.70
2018-11-13T07:51:10.718Z,91.60
2018-11-13T07:53:41.532Z,91.40
2018-11-13T07:56:12.479Z,91.40
2018-11-13T07:58:43.372Z,91.50
2018-11-13T08:01:14.352Z,91.60
2018-11-13T08:03:45.186Z,91.50
2018-11-13T08:06:15.960Z,91.50
2018-11-13T08:08:47.588Z,91.60
2018-11-13T08:11:18.510Z,91.70
2018-11-13T08:13:49.532Z,91.50
2018-11-13T08:16:20.394Z,91.60
2018-11-13T08:18:51.281Z,91.80
2018-11-13T08:21:22.131Z,91.90
2018-11-13T08:23:53.037Z,91.40
2018-11-13T08:26:24.035Z,91.50
2018-11-13T08:28:54.854Z,91.60
2018-11-13T08:31:25.719Z,91.60
2018-11-13T08:33:56.484Z,91.60
2018-11-13T08:36:27.366Z,91.40
2018-11-13T08:38:58.221Z,91.60
2018-11-13T08:41:29.065Z,91.40
2018-11-13T08:44:00.070Z,91.30
2018-11-13T08:46:30.937Z,91.30
2018-11-13T08:49:01.951Z,91.50
2018-11-13T08:51:32.810Z,91.50
2018-11-13T08:54:03.914Z,91.50
2018-11-13T08:56:35.089Z,91.50
2018-11-13T08:59:06.169Z,91.30
2018-11-13T09:01:36.995Z,91.40
2018-11-13T09:04:08.289Z,91.50
2018-11-13T09:06:39.224Z,91.10
2018-11-13T09:09:13.024Z,91.20
2018-11-13T09:11:44.019Z,91.20
2018-11-13T09:14:14.891Z,91.10
2018-11-13T09:16:46.814Z,91.20
2018-11-13T09:19:17.807Z,91.00
2018-11-13T09:21:49.332Z,91.00
2018-11-13T09:24:20.277Z,90.90
2018-11-13T09:26:51.232Z,91.00
2018-11-13T09:29:22.069Z,91.10
2018-11-13T09:31:53.358Z,90.90
2018-11-13T09:34:24.206Z,90.80
2018-11-13T09:36:55.315Z,90.50
2018-11-13T09:39:26.213Z,90.90
2018-11-13T09:41:57.224Z,90.70
2018-11-13T09:44:28.098Z,90.70
2018-11-13T09:46:58.895Z,90.50
2018-11-13T09:49:29.709Z,90.70
2018-11-13T09:52:00.560Z,90.50
2018-11-13T09:54:31.429Z,90.50
2018-11-13T09:57:02.243Z,90.70
2018-11-13T09:59:33.101Z,90.50
2018-11-13T10:02:04.446Z,90.60
2018-11-13T10:04:35.890Z,90.60
2018-11-13T10:07:06.512Z,90.60
2018-11-13T10:09:37.452Z,90.40
2018-11-13T10:12:08.412Z,90.50
2018-11-13T10:14:39.290Z,90.40
2018-11-13T10:17:10.226Z,90.20
2018-11-13T10:19:41.124Z,90.30
2018-11-13T10:22:11.912Z,90.40
2018-11-13T10:24:42.711Z,90.40
2018-11-13T10:27:13.643Z,90.50
2018-11-13T10:29:44.573Z,90.60
2018-11-13T10:32:15.549Z,90.60
2018-11-13T10:34:46.401Z,90.70
2018-11-13T10:37:17.548Z,90.70
2018-11-13T10:39:48.433Z,90.60
2018-11-13T10:42:19.278Z,90.50
2018-11-13T10:44:50.148Z,90.70
2018-11-13T10:47:20.993Z,90.80
2018-11-13T10:49:52.385Z,90.70
2018-11-13T10:52:23.261Z,90.70
2018-11-13T10:54:54.221Z,90.50
2018-11-13T10:57:25.052Z,90.30
2018-11-13T10:59:55.936Z,90.20
2018-11-13T11:02:31.922Z,90.20
2018-11-13T11:05:07.784Z,90.30
2018-11-13T11:07:38.641Z,90.20
2018-11-13T11:10:10.118Z,90.20
2018-11-13T11:12:41.267Z,90.10
2018-11-13T11:15:12.254Z,89.60
2018-11-13T11:17:43.122Z,89.50
2018-11-13T11:20:14.577Z,89.40
2018-11-13T11:22:45.482Z,89.30
2018-11-13T11:25:16.348Z,89.70
2018-11-13T11:27:47.147Z,89.60
2018-11-13T11:30:18.703Z,89.30
2018-11-13T11:32:49.539Z,89.30
2018-11-13T11:35:20.448Z,89.40
2018-11-13T11:37:51.344Z,89.50
2018-11-13T11:40:22.165Z,89.70
2018-11-13T11:42:53.041Z,90.00
2018-11-13T11:45:23.904Z,90.00
2018-11-13T11:47:54.795Z,89.60
2018-11-13T11:50:25.717Z,89.60
2018-11-13T11:52:56.653Z,89.80
2018-11-13T11:55:27.520Z,89.80
2018-11-13T11:57:58.358Z,90.10
2018-11-13T12:00:32.919Z,90.10
2018-11-13T12:03:04.460Z,90.20
2018-11-13T12:05:35.317Z,90.40
2018-11-13T12:08:06.256Z,90.90
2018-11-13T12:10:37.121Z,91.20
2018-11-13T12:13:07.912Z,91.20
2018-11-13T12:15:38.801Z,91.50
2018-11-13T12:18:09.653Z,91.50
2018-11-13T12:20:40.524Z,91.70
2018-11-13T12:23:13.101Z,91.80
2018-11-13T12:25:44.170Z,91.70
2018-11-13T12:28:16.172Z,91.80
2018-11-13T12:30:47.268Z,91.80
2018-11-13T12:33:18.373Z,91.90
2018-11-13T12:35:49.262Z,92.00
2018-11-13T12:38:20.165Z,92.20
2018-11-13T12:40:51.072Z,92.20
2018-11-13T12:43:21.943Z,92.00
2018-11-13T12:45:53.024Z,92.00
2018-11-13T12:48:24.153Z,92.10
2018-11-13T12:51:03.233Z,92.20
2018-11-13T12:53:35.135Z,92.20
2018-11-13T12:56:06.072Z,92.40
2018-11-13T12:58:37.142Z,92.40
2018-11-13T13:01:08.057Z,92.40
2018-11-13T13:03:39.223Z,92.70
2018-11-13T13:06:10.589Z,93.00
2018-11-13T13:08:41.509Z,93.00
2018-11-13T13:11:12.430Z,93.10
2018-11-13T13:13:44.212Z,93.40
2018-11-13T13:16:16.522Z,93.50
2018-11-13T13:18:47.377Z,93.80
2018-11-13T13:21:18.581Z,93.80
2018-11-13T13:23:49.769Z,94.20
2018-11-13T13:26:21.579Z,94.60
2018-11-13T13:28:52.618Z,94.90
2018-11-13T13:31:24.131Z,94.80
2018-11-13T13:33:55.130Z,95.00
2018-11-13T13:36:26.301Z,95.10
2018-11-13T13:38:57.391Z,95.10
2018-11-13T13:41:28.399Z,95.10
2018-11-13T13:43:59.263Z,95.30
2018-11-13T13:46:31.314Z,95.50
2018-11-13T13:49:02.288Z,95.90
2018-11-13T13:51:33.257Z,95.90
2018-11-13T13:54:04.490Z,95.80
2018-11-13T13:56:35.682Z,95.80
2018-11-13T13:59:06.758Z,96.00
2018-11-13T14:01:37.762Z,95.80
2018-11-13T14:04:08.741Z,95.90
2018-11-13T14:06:39.740Z,95.80
2018-11-13T14:09:11.624Z,95.70
2018-11-13T14:11:42.758Z,95.60
2018-11-13T14:14:14.092Z,95.80
2018-11-13T14:16:45.297Z,95.90
2018-11-13T14:19:16.313Z,95.90
2018-11-13T14:21:47.313Z,96.10
2018-11-13T14:24:18.317Z,96.30
2018-11-13T14:26:49.325Z,96.20
2018-11-13T14:29:20.533Z,96.20
2018-11-13T14:31:51.539Z,96.30
2018-11-13T14:34:22.457Z,96.30
2018-11-13T14:36:53.630Z,96.40
2018-11-13T14:39:25.614Z,96.60
2018-11-13T14:41:56.607Z,96.60
2018-11-13T14:44:27.702Z,96.60
2018-11-13T14:46:59.785Z,96.60
2018-11-13T14:49:31.021Z,96.60
2018-11-13T14:52:02.256Z,96.60
2018-11-13T14:54:33.161Z,96.70
2018-11-13T14:57:04.905Z,96.60
2018-11-13T14:59:35.920Z,97.00
2018-11-13T15:02:07.722Z,97.30
2018-11-13T15:04:38.845Z,97.20
2018-11-13T15:07:09.890Z,97.20
2018-11-13T15:09:41.383Z,97.50
2018-11-13T15:12:12.413Z,97.40
2018-11-13T15:14:43.361Z,97.60
2018-11-13T15:17:14.393Z,97.60
2018-11-13T15:19:45.281Z,97.70
2018-11-13T15:22:16.359Z,97.80
2018-11-13T15:24:47.550Z,98.00
2018-11-13T15:27:25.709Z,98.00
2018-11-13T15:29:56.732Z,98.00
2018-11-13T15:32:27.741Z,98.00
2018-11-13T15:34:59.120Z,97.90
2018-11-13T15:37:30.163Z,97.80
2018-11-13T15:40:01.775Z,97.50
2018-11-13T15:42:32.730Z,97.60
2018-11-13T15:45:04.031Z,98.00
2018-11-13T15:47:35.323Z,97.50
2018-11-13T15:50:08.153Z,97.40
2018-11-13T15:52:39.650Z,97.50
2018-11-13T15:55:11.919Z,97.50
2018-11-13T15:57:43.893Z,97.40
2018-11-13T16:00:21.530Z,97.30
2018-11-13T16:02:52.955Z,97.40
2018-11-13T16:05:35.958Z,97.20
2018-11-13T16:08:08.220Z,97.00
2018-11-13T16:10:39.303Z,96.70
2018-11-13T16:13:10.545Z,96.70
2018-11-13T16:15:41.910Z,97.00
2018-11-13T16:18:14.437Z,96.90
2018-11-13T16:20:46.466Z,96.90
2018-11-13T16:23:17.437Z,96.80
2018-11-13T16:25:48.606Z,96.80
2018-11-13T16:28:20.594Z,96.70
2018-11-13T16:30:51.761Z,96.70
2018-11-13T16:33:23.794Z,96.60
2018-11-13T16:35:54.665Z,96.80
2018-11-13T16:38:26.526Z,96.80
2018-11-13T16:40:57.383Z,96.80
2018-11-13T16:43:28.497Z,96.70
2018-11-13T16:45:59.402Z,96.50
2018-11-13T16:48:30.458Z,96.40
2018-11-13T16:51:01.652Z,96.40
2018-11-13T16:53:36.683Z,96.40
2018-11-13T16:56:08.269Z,96.20
2018-11-13T16:58:39.422Z,96.40
2018-11-13T17:01:11.272Z,96.60
2018-11-13T17:03:42.256Z,96.40
2018-11-13T17:06:13.341Z,96.50
2018-11-13T17:08:44.253Z,96.60
2018-11-13T17:11:15.284Z,96.70
2018-11-13T17:13:46.112Z,96.60
2018-11-13T17:16:17.113Z,96.50
2018-11-13T17:18:49.073Z,96.60
2018-11-13T17:21:20.773Z,96.50
2018-11-13T17:23:52.087Z,96.40
2018-11-13T17:26:23.424Z,96.90
2018-11-13T17:28:54.907Z,97.00
2018-11-13T17:31:27.036Z,97.00
2018-11-13T17:33:59.029Z,97.10
2018-11-13T17:36:30.078Z,97.10
2018-11-13T17:39:01.141Z,97.00
2018-11-13T17:41:32.130Z,97.10
2018-11-13T17:44:03.256Z,97.10
2018-11-13T17:46:34.399Z,97.10
2018-11-13T17:49:05.667Z,97.10
2018-11-13T17:51:36.792Z,97.00
2018-11-13T17:54:07.849Z,96.90
2018-11-13T17:56:39.126Z,97.00
2018-11-13T17:59:10.140Z,96.90
2018-11-13T18:01:41.104Z,97.50
2018-11-13T18:04:12.877Z,97.80
2018-11-13T18:06:43.932Z,97.30
2018-11-13T18:09:15.969Z,98.10
2018-11-13T18:11:47.068Z,97.40
2018-11-13T18:14:18.464Z,97.00
2018-11-13T18:16:49.586Z,96.90
2018-11-13T18:19:20.864Z,96.90
2018-11-13T18:21:52.156Z,97.10
2018-11-13T18:24:23.285Z,97.10
2018-11-13T18:26:54.516Z,97.20
2018-11-13T18:29:25.596Z,97.10
2018-11-13T18:31:56.803Z,97.10
2018-11-13T18:34:27.976Z,97.00
2018-11-13T18:36:59.126Z,97.00
2018-11-13T18:39:30.177Z,97.70
2018-11-13T18:42:01.796Z,97.10
2018-11-13T18:44:32.950Z,96.80
2018-11-13T18:47:04.268Z,96.90
2018-11-13T18:49:35.298Z,97.10
2018-11-13T18:52:06.832Z,97.10
2018-11-13T18:54:38.210Z,96.90
2018-11-13T18:57:09.296Z,96.70
2018-11-13T18:59:40.672Z,96.60
2018-11-13T19:02:12.565Z,96.60
2018-11-13T19:04:44.434Z,96.50
2018-11-13T19:07:17.058Z,96.70
2018-11-13T19:09:49.869Z,96.50
2018-11-13T19:12:22.805Z,96.40
2018-11-13T19:14:54.614Z,96.40
2018-11-13T19:17:25.962Z,96.50
2018-11-13T19:19:57.371Z,96.50
2018-11-13T19:22:28.401Z,96.50
2018-11-13T19:24:59.561Z,96.60
2018-11-13T19:27:31.885Z,96.70
2018-11-13T19:30:03.108Z,96.70
2018-11-13T19:32:34.447Z,97.10
2018-11-13T19:35:06.146Z,96.70
2018-11-13T19:37:38.044Z,96.70
2018-11-13T19:40:15.920Z,96.50
2018-11-13T19:42:47.841Z,96.60
2018-11-13T19:45:19.141Z,96.60
2018-11-13T19:47:50.211Z,96.60
2018-11-13T19:50:22.845Z,96.70
2018-11-13T19:52:54.312Z,96.80
2018-11-13T19:55:26.379Z,97.20
2018-11-13T19:57:58.186Z,97.30
2018-11-13T20:00:32.458Z,97.80
2018-11-13T20:03:04.942Z,97.60
2018-11-13T20:05:36.082Z,97.80
2018-11-13T20:08:08.564Z,97.90
2018-11-13T20:10:40.475Z,97.40
2018-11-13T20:13:12.203Z,97.10
2018-11-13T20:15:43.816Z,98.10
2018-11-13T20:18:15.600Z,97.30
2018-11-13T20:20:46.656Z,97.30
2018-11-13T20:23:17.702Z,96.10
2018-11-13T20:25:48.780Z,96.60
2018-11-13T20:28:19.746Z,96.60
2018-11-13T20:30:50.886Z,96.00
2018-11-13T20:33:21.942Z,96.10
2018-11-13T20:35:53.080Z,96.10
2018-11-13T20:38:24.012Z,96.20
2018-11-13T20:40:55.524Z,96.10
2018-11-13T20:43:27.311Z,96.60
2018-11-13T20:45:59.652Z,96.50
2018-11-13T20:48:31.858Z,96.30
2018-11-13T20:51:03.440Z,96.30
2018-11-13T20:53:35.133Z,96.20
2018-11-13T20:56:06.706Z,96.10
2018-11-13T20:58:38.121Z,96.10
2018-11-13T21:01:09.618Z,96.00
2018-11-13T21:03:40.671Z,96.10
2018-11-13T21:06:11.667Z,96.10
2018-11-13T21:08:43.305Z,96.10
2018-11-13T21:11:15.215Z,96.10
2018-11-13T21:13:47.463Z,96.00
2018-11-13T21:16:19.059Z,95.90
2018-11-13T21:18:50.259Z,96.10
2018-11-13T21:21:22.006Z,96.60
2018-11-13T21:23:54.227Z,96.60
2018-11-13T21:26:25.723Z,96.80
2018-11-13T21:28:56.996Z,96.40
2018-11-13T21:31:28.647Z,95.70
2018-11-13T21:33:59.625Z,95.00
2018-11-13T21:36:31.303Z,94.70
2018-11-13T21:39:03.110Z,94.60
2018-11-13T21:41:34.704Z,94.50
2018-11-13T21:44:06.391Z,94.40
2018-11-13T21:46:37.726Z,94.80
2018-11-13T21:49:09.169Z,94.80
2018-11-13T21:51:40.848Z,94.20
2018-11-13T21:54:12.297Z,94.20
2018-11-13T21:56:43.191Z,94.20
2018-11-13T21:59:14.249Z,94.20
2018-11-13T22:01:45.580Z,94.30
2018-11-13T22:04:16.876Z,94.50
2018-11-13T22:06:49.065Z,94.50
2018-11-13T22:09:20.249Z,94.50
2018-11-13T22:11:51.525Z,94.80
2018-11-13T22:14:22.904Z,94.90
2018-11-13T22:16:54.316Z,95.00
2018-11-13T22:19:25.423Z,94.90
2018-11-13T22:21:56.800Z,95.10
2018-11-13T22:24:27.933Z,95.40
2018-11-13T22:26:58.938Z,95.40
2018-11-13T22:29:29.910Z,95.40
2018-11-13T22:32:00.925Z,95.30
2018-11-13T22:34:32.350Z,95.20
2018-11-13T22:37:03.957Z,95.30
2018-11-13T22:39:35.623Z,95.30
2018-11-13T22:42:07.920Z,95.40
2018-11-13T22:44:39.336Z,95.40
2018-11-13T22:47:10.990Z,95.30
2018-11-13T22:49:43.055Z,95.30
2018-11-13T22:52:14.621Z,95.30
2018-11-13T22:54:46.952Z,95.30
2018-11-13T22:57:18.609Z,95.30
2018-11-13T22:59:50.802Z,95.30
2018-11-13T23:02:22.318Z,95.30
2018-11-13T23:04:53.836Z,95.20
2018-11-13T23:07:25.273Z,95.10
2018-11-13T23:09:56.582Z,95.50
2018-11-13T23:12:27.950Z,95.20
2018-11-13T23:14:59.645Z,95.20
2018-11-13T23:17:32.008Z,95.30
2018-11-13T23:20:03.784Z,95.30
2018-11-13T23:22:35.040Z,95.40
2018-11-13T23:25:07.439Z,95.50
2018-11-13T23:27:38.928Z,95.40
2018-11-13T23:30:20.385Z,95.40
2018-11-13T23:32:52.466Z,95.40
2018-11-13T23:35:24.208Z,95.50
2018-11-13T23:37:57.344Z,95.50
2018-11-13T23:40:30.028Z,95.60
2018-11-13T23:43:01.779Z,95.60
2018-11-13T23:45:33.355Z,95.70
2018-11-13T23:48:04.936Z,95.50
2018-11-13T23:50:36.619Z,95.10
2018-11-13T23:53:08.509Z,95.70
2018-11-13T23:55:40.252Z,95.90
2018-11-13T23:58:11.308Z,95.70
